Time,TemperatureF,DewpointF,PressureIn,WindDirection,WindDirectionDegrees,WindSpeedMPH,WindSpeedGustMPH,Humidity,HourlyPrecipIn,Conditions,Clouds,dailyrainin,SoftwareType,DateUTC
2013-08-15 00:00:00,62.9,55.2,29.88,SSW,205,0.0,4.0,76,0.00,,,0.00,VWS V14.01,2013-08-15 04:00:00,
2013-08-15 00:10:00,62.9,54.9,29.88,SW,223,1.0,3.0,75,0.00,,,0.00,VWS V14.01,2013-08-15 04:10:00,
2013-08-15 00:20:00,63.1,55.8,29.89,SW,220,0.0,4.0,77,0.00,,,0.00,VWS V14.01,2013-08-15 04:20:00,
2013-08-15 00:30:00,63.2,54.4,29.89,SSW,210,4.0,5.0,73,0.00,,,0.00,VWS V14.01,2013-08-15 04:30:00,
2013-08-15 00:40:00,63.4,54.2,29.89,SE,144,1.0,4.0,72,0.00,,,0.00,VWS V14.01,2013-08-15 04:40:00,
2013-08-15 00:50:00,63.5,54.3,29.90,SW,223,0.0,5.0,72,0.00,,,0.00,VWS V14.01,2013-08-15 04:50:00,
2013-08-15 01:00:00,63.4,55.0,29.90,SW,223,0.0,1.0,74,0.00,,,0.00,VWS V14.01,2013-08-15 05:00:00,
2013-08-15 01:10:00,63.2,54.4,29.90,SW,223,0.0,2.0,73,0.00,,,0.00,VWS V14.01,2013-08-15 05:10:00,
2013-08-15 01:20:00,62.9,54.9,29.90,SW,223,0.0,1.0,75,0.00,,,0.00,VWS V14.01,2013-08-15 05:20:00,
2013-08-15 01:30:00,62.5,54.5,29.89,SW,223,0.0,0.0,75,0.00,,,0.00,VWS V14.01,2013-08-15 05:30:00,
2013-08-15 01:40:00,62.0,54.0,29.89,SW,228,0.0,2.0,75,0.00,,,0.00,VWS V14.01,2013-08-15 05:40:00,
2013-08-15 01:50:00,61.9,54.3,29.90,SW,217,1.0,1.0,76,0.00,,,0.00,VWS V14.01,2013-08-15 05:50:00,
2013-08-15 02:00:00,61.8,54.9,29.89,SW,218,1.0,2.0,78,0.00,,,0.00,VWS V14.01,2013-08-15 06:00:00,
2013-08-15 02:10:00,61.8,54.2,29.89,South,176,0.0,3.0,76,0.00,,,0.00,VWS V14.01,2013-08-15 06:10:00,
2013-08-15 02:20:00,61.8,54.9,29.90,East,98,0.0,4.0,78,0.00,,,0.00,VWS V14.01,2013-08-15 06:20:00,
2013-08-15 02:30:00,61.9,55.0,29.90,East,98,0.0,0.0,78,0.00,,,0.00,VWS V14.01,2013-08-15 06:30:00,
2013-08-15 02:40:00,61.7,54.1,29.90,East,98,0.0,1.0,76,0.00,,,0.00,VWS V14.01,2013-08-15 06:40:00,
2013-08-15 02:50:00,61.4,53.8,29.90,East,98,0.0,0.0,76,0.00,,,0.00,VWS V14.01,2013-08-15 06:50:00,
2013-08-15 03:00:00,60.9,54.0,29.91,East,98,0.0,0.0,78,0.00,,,0.00,VWS V14.01,2013-08-15 07:00:00,
2013-08-15 03:10:00,60.3,53.4,29.91,East,98,0.0,0.0,78,0.00,,,0.00,VWS V14.01,2013-08-15 07:10:00,
2013-08-15 03:20:00,59.8,53.6,29.91,East,98,0.0,0.0,80,0.00,,,0.00,VWS V14.01,2013-08-15 07:20:00,
2013-08-15 03:30:00,59.4,53.2,29.91,East,98,0.0,0.0,80,0.00,,,0.00,VWS V14.01,2013-08-15 07:30:00,
2013-08-15 03:40:00,59.0,53.5,29.91,East,98,0.0,0.0,82,0.00,,,0.00,VWS V14.01,2013-08-15 07:40:00,
2013-08-15 03:50:00,58.4,53.6,29.91,East,98,0.0,1.0,84,0.00,,,0.00,VWS V14.01,2013-08-15 07:50:00,
2013-08-15 04:00:00,57.8,53.3,29.91,East,98,0.0,1.0,85,0.00,,,0.00,VWS V14.01,2013-08-15 08:00:00,
2013-08-15 04:10:00,57.4,53.2,29.91,East,98,0.0,1.0,86,0.00,,,0.00,VWS V14.01,2013-08-15 08:10:00,
2013-08-15 04:20:00,57.1,53.0,29.91,East,98,0.0,1.0,86,0.00,,,0.00,VWS V14.01,2013-08-15 08:20:00,
2013-08-15 04:30:00,56.9,53.4,29.91,East,98,0.0,1.0,88,0.00,,,0.00,VWS V14.01,2013-08-15 08:30:00,
2013-08-15 04:40:00,56.6,53.1,29.91,ESE,107,0.0,1.0,88,0.00,,,0.00,VWS V14.01,2013-08-15 08:40:00,
2013-08-15 04:50:00,56.4,53.2,29.92,SE,129,0.0,1.0,89,0.00,,,0.00,VWS V14.01,2013-08-15 08:50:00,
2013-08-15 05:00:00,56.1,52.9,29.92,SE,129,0.0,1.0,89,0.00,,,0.00,VWS V14.01,2013-08-15 09:00:00,
2013-08-15 05:10:00,55.7,52.5,29.92,SE,129,0.0,1.0,89,0.00,,,0.00,VWS V14.01,2013-08-15 09:10:00,
2013-08-15 05:20:00,55.3,52.4,29.93,SE,128,0.0,1.0,90,0.00,,,0.00,VWS V14.01,2013-08-15 09:20:00,
2013-08-15 05:30:00,55.1,52.5,29.93,SE,129,0.0,1.0,91,0.00,,,0.00,VWS V14.01,2013-08-15 09:30:00,
2013-08-15 05:40:00,54.8,52.2,29.93,SE,129,0.0,1.0,91,0.00,,,0.00,VWS V14.01,2013-08-15 09:40:00,
2013-08-15 05:50:00,54.5,51.9,29.94,SE,129,0.0,1.0,91,0.00,,,0.00,VWS V14.01,2013-08-15 09:50:00,
2013-08-15 06:00:00,54.2,51.9,29.95,SE,129,0.0,1.0,92,0.00,,,0.00,VWS V14.01,2013-08-15 10:00:00,
2013-08-15 06:10:00,54.3,52.0,29.95,SE,129,0.0,1.0,92,0.00,,,0.00,VWS V14.01,2013-08-15 10:10:00,
2013-08-15 06:20:00,54.3,52.0,29.95,SE,129,0.0,0.0,92,0.00,,,0.00,VWS V14.01,2013-08-15 10:20:00,
2013-08-15 06:30:00,54.4,52.4,29.95,SE,129,0.0,0.0,93,0.00,,,0.00,VWS V14.01,2013-08-15 10:30:00,
2013-08-15 06:40:00,54.6,52.6,29.95,SE,129,0.0,0.0,93,0.00,,,0.00,VWS V14.01,2013-08-15 10:40:00,
2013-08-15 06:50:00,54.7,52.7,29.95,SE,129,0.0,0.0,93,0.00,,,0.00,VWS V14.01,2013-08-15 10:50:00,
2013-08-15 07:00:00,55.0,53.3,29.95,SE,129,0.0,0.0,94,0.00,,,0.00,VWS V14.01,2013-08-15 11:00:00,
2013-08-15 07:10:00,55.3,53.9,29.95,SE,129,0.0,0.0,95,0.00,,,0.00,VWS V14.01,2013-08-15 11:10:00,
2013-08-15 07:20:00,55.7,54.3,29.96,SE,128,0.0,1.0,95,0.00,,,0.00,VWS V14.01,2013-08-15 11:20:00,
2013-08-15 07:30:00,56.2,55.1,29.96,SE,129,0.0,0.0,96,0.00,,,0.00,VWS V14.01,2013-08-15 11:30:00,
2013-08-15 07:40:00,56.6,55.5,29.96,SE,128,0.0,2.0,96,0.00,,,0.00,VWS V14.01,2013-08-15 11:40:00,
2013-08-15 07:50:00,57.3,56.2,29.96,SE,128,0.0,0.0,96,0.00,,,0.00,VWS V14.01,2013-08-15 11:50:00,
2013-08-15 08:00:00,57.8,56.7,29.97,SE,129,0.0,1.0,96,0.00,,,0.00,VWS V14.01,2013-08-15 12:00:00,
2013-08-15 08:10:00,58.3,57.2,29.97,SE,129,1.0,2.0,96,0.00,,,0.00,VWS V14.01,2013-08-15 12:10:00,
2013-08-15 08:20:00,59.1,58.0,29.96,SE,129,0.0,2.0,96,0.00,,,0.00,VWS V14.01,2013-08-15 12:20:00,
2013-08-15 08:30:00,59.7,58.0,29.97,SSE,161,0.0,2.0,94,0.00,,,0.00,VWS V14.01,2013-08-15 12:30:00,
2013-08-15 08:40:00,60.7,57.4,29.97,SSW,207,0.0,4.0,89,0.00,,,0.00,VWS V14.01,2013-08-15 12:40:00,
2013-08-15 08:50:00,61.5,58.5,29.97,SSE,164,1.0,2.0,90,0.00,,,0.00,VWS V14.01,2013-08-15 12:50:00,
2013-08-15 09:00:00,62.7,57.8,29.97,SSW,202,3.0,4.0,84,0.00,,,0.00,VWS V14.01,2013-08-15 13:00:00,
2013-08-15 09:20:00,64.9,57.9,29.97,South,173,1.0,3.0,78,0.00,,,0.00,VWS V14.01,2013-08-15 13:20:00,
2013-08-15 09:30:00,65.6,56.3,29.98,ENE,57,2.0,6.0,72,0.00,,,0.00,VWS V14.01,2013-08-15 13:30:00,
2013-08-15 09:40:00,66.0,57.1,29.98,SW,215,2.0,4.0,73,0.00,,,0.00,VWS V14.01,2013-08-15 13:40:00,
2013-08-15 09:50:00,66.7,56.2,29.98,SSE,153,2.0,6.0,69,0.00,,,0.00,VWS V14.01,2013-08-15 13:50:00,
2013-08-15 10:00:00,67.3,55.2,29.98,SSW,192,0.0,9.0,65,0.00,,,0.00,VWS V14.01,2013-08-15 14:00:00,
2013-08-15 10:10:00,67.7,56.8,29.98,SSW,213,0.0,6.0,68,0.00,,,0.00,VWS V14.01,2013-08-15 14:10:00,
2013-08-15 10:20:00,67.9,54.4,29.98,SSW,197,1.0,3.0,62,0.00,,,0.00,VWS V14.01,2013-08-15 14:20:00,
2013-08-15 10:30:00,68.5,54.5,29.99,East,95,1.0,4.0,61,0.00,,,0.00,VWS V14.01,2013-08-15 14:30:00,
2013-08-15 10:40:00,68.8,53.9,29.99,SSW,202,1.0,4.0,59,0.00,,,0.00,VWS V14.01,2013-08-15 14:40:00,
2013-08-15 11:10:00,69.7,51.3,29.98,SW,221,0.0,6.0,52,0.00,,,0.00,VWS V14.01,2013-08-15 15:10:00,
2013-08-15 11:20:00,69.9,51.5,29.98,SSW,209,1.0,6.0,52,0.00,,,0.00,VWS V14.01,2013-08-15 15:20:00,
2013-08-15 11:30:00,70.3,51.9,29.98,WSW,244,0.0,4.0,52,0.00,,,0.00,VWS V14.01,2013-08-15 15:30:00,
2013-08-15 11:40:00,70.6,51.6,29.98,SW,223,0.0,4.0,51,0.00,,,0.00,VWS V14.01,2013-08-15 15:40:00,
2013-08-15 11:50:00,70.9,50.8,29.98,SSW,205,0.0,3.0,49,0.00,,,0.00,VWS V14.01,2013-08-15 15:50:00,
2013-08-15 12:10:00,71.0,52.5,29.98,WSW,237,2.0,6.0,52,0.00,,,0.00,VWS V14.01,2013-08-15 16:10:00,
2013-08-15 12:20:00,71.4,49.0,29.98,SW,217,3.0,5.0,45,0.00,,,0.00,VWS V14.01,2013-08-15 16:20:00,
2013-08-15 12:30:00,71.7,52.1,29.98,ENE,65,2.0,5.0,50,0.00,,,0.00,VWS V14.01,2013-08-15 16:30:00,
2013-08-15 12:40:00,72.2,49.1,29.98,SSW,194,3.0,6.0,44,0.00,,,0.00,VWS V14.01,2013-08-15 16:40:00,
2013-08-15 12:50:00,72.6,50.7,29.98,WSW,249,1.0,7.0,46,0.00,,,0.00,VWS V14.01,2013-08-15 16:50:00,
2013-08-15 13:00:00,72.5,52.3,29.97,SW,221,1.0,5.0,49,0.00,,,0.00,VWS V14.01,2013-08-15 17:00:00,
2013-08-15 13:10:00,72.2,51.4,29.97,SW,231,3.0,7.0,48,0.00,,,0.00,VWS V14.01,2013-08-15 17:10:00,
2013-08-15 13:30:00,72.6,48.8,29.96,SSW,206,3.0,7.0,43,0.00,,,0.00,VWS V14.01,2013-08-15 17:30:00,
2013-08-15 13:40:00,72.9,48.5,29.96,SSW,200,1.0,7.0,42,0.00,,,0.00,VWS V14.01,2013-08-15 17:40:00,
2013-08-15 14:00:00,73.4,48.3,29.96,SSE,157,3.0,7.0,41,0.00,,,0.00,VWS V14.01,2013-08-15 18:00:00,
2013-08-15 14:10:00,73.7,49.8,29.96,SSW,197,2.0,6.0,43,0.00,,,0.00,VWS V14.01,2013-08-15 18:10:00,
2013-08-15 14:20:00,73.9,50.0,29.95,SSW,210,4.0,7.0,43,0.00,,,0.00,VWS V14.01,2013-08-15 18:20:00,
2013-08-15 14:30:00,74.2,50.3,29.95,SW,223,1.0,11.0,43,0.00,,,0.00,VWS V14.01,2013-08-15 18:30:00,
2013-08-15 14:40:00,74.6,55.3,29.95,SW,235,2.0,4.0,51,0.00,,,0.00,VWS V14.01,2013-08-15 18:40:00,
2013-08-15 14:50:00,74.3,54.5,29.95,WSW,238,1.0,5.0,50,0.00,,,0.00,VWS V14.01,2013-08-15 18:50:00,
2013-08-15 15:10:00,74.0,55.8,29.95,SSW,196,3.0,5.0,53,0.00,,,0.00,VWS V14.01,2013-08-15 19:10:00,
2013-08-15 15:20:00,74.1,56.4,29.94,WSW,246,0.0,4.0,54,0.00,,,0.00,VWS V14.01,2013-08-15 19:20:00,
2013-08-15 15:30:00,74.2,56.5,29.94,NNW,346,1.0,5.0,54,0.00,,,0.00,VWS V14.01,2013-08-15 19:30:00,
2013-08-15 15:40:00,74.3,57.1,29.94,WSW,238,0.0,9.0,55,0.00,,,0.00,VWS V14.01,2013-08-15 19:40:00,
2013-08-15 15:50:00,74.3,56.1,29.93,North,355,0.0,4.0,53,0.00,,,0.00,VWS V14.01,2013-08-15 19:50:00,
2013-08-15 16:20:00,74.7,55.9,29.94,WSW,240,2.0,3.0,52,0.00,,,0.00,VWS V14.01,2013-08-15 20:20:00,
2013-08-15 16:30:00,75.0,55.7,29.93,NE,42,1.0,5.0,51,0.00,,,0.00,VWS V14.01,2013-08-15 20:30:00,
2013-08-15 16:40:00,75.8,58.0,29.93,WSW,255,1.0,3.0,54,0.00,,,0.00,VWS V14.01,2013-08-15 20:40:00,
2013-08-15 16:50:00,76.0,55.5,29.93,West,277,1.0,4.0,49,0.00,,,0.00,VWS V14.01,2013-08-15 20:50:00,
2013-08-15 17:00:00,76.2,57.3,29.94,WNW,292,1.0,4.0,52,0.00,,,0.00,VWS V14.01,2013-08-15 21:00:00,
2013-08-15 17:10:00,76.6,55.5,29.94,SW,217,2.0,5.0,48,0.00,,,0.00,VWS V14.01,2013-08-15 21:10:00,
2013-08-15 17:20:00,76.7,56.7,29.93,SSW,194,1.0,4.0,50,0.00,,,0.00,VWS V14.01,2013-08-15 21:20:00,
2013-08-15 17:30:00,76.9,55.7,29.94,WSW,254,1.0,4.0,48,0.00,,,0.00,VWS V14.01,2013-08-15 21:30:00,
2013-08-15 17:40:00,76.6,56.0,29.94,NW,315,1.0,4.0,49,0.00,,,0.00,VWS V14.01,2013-08-15 21:40:00,
2013-08-15 17:50:00,76.7,56.1,29.93,SSW,206,2.0,4.0,49,0.00,,,0.00,VWS V14.01,2013-08-15 21:50:00,
2013-08-15 18:10:00,77.1,55.9,29.93,SSW,211,1.0,5.0,48,0.00,,,0.00,VWS V14.01,2013-08-15 22:10:00,
2013-08-15 18:20:00,77.1,56.5,29.93,West,261,1.0,4.0,49,0.00,,,0.00,VWS V14.01,2013-08-15 22:20:00,
2013-08-15 18:30:00,76.6,56.6,29.93,SW,235,1.0,2.0,50,0.00,,,0.00,VWS V14.01,2013-08-15 22:30:00,
2013-08-15 18:40:00,74.8,56.0,29.93,SW,233,0.0,5.0,52,0.00,,,0.00,VWS V14.01,2013-08-15 22:40:00,
2013-08-15 18:50:00,73.6,57.0,29.93,SW,222,1.0,2.0,56,0.00,,,0.00,VWS V14.01,2013-08-15 22:50:00,
2013-08-15 19:00:00,72.5,56.9,29.94,West,277,0.0,2.0,58,0.00,,,0.00,VWS V14.01,2013-08-15 23:00:00,
2013-08-15 19:10:00,71.6,55.6,29.94,SSW,211,0.0,4.0,57,0.00,,,0.00,VWS V14.01,2013-08-15 23:10:00,
2013-08-15 19:20:00,70.7,55.7,29.95,South,188,0.0,3.0,59,0.00,,,0.00,VWS V14.01,2013-08-15 23:20:00,
2013-08-15 19:30:00,69.9,57.6,29.96,SSE,167,0.0,2.0,65,0.00,,,0.00,VWS V14.01,2013-08-15 23:30:00,
2013-08-15 19:40:00,69.2,57.0,29.96,SSE,167,0.0,1.0,65,0.00,,,0.00,VWS V14.01,2013-08-15 23:40:00,
2013-08-15 19:50:00,68.6,57.2,29.96,SSE,167,0.0,1.0,67,0.00,,,0.00,VWS V14.01,2013-08-15 23:50:00,
2013-08-15 20:10:00,67.6,57.5,29.97,South,169,0.0,0.0,70,0.00,,,0.00,VWS V14.01,2013-08-16 00:10:00,
2013-08-15 20:20:00,67.0,57.3,29.98,South,169,0.0,0.0,71,0.00,,,0.00,VWS V14.01,2013-08-16 00:20:00,
2013-08-15 20:30:00,66.5,57.2,29.98,South,169,0.0,1.0,72,0.00,,,0.00,VWS V14.01,2013-08-16 00:30:00,
2013-08-15 20:40:00,65.9,57.4,29.98,South,171,0.0,1.0,74,0.00,,,0.00,VWS V14.01,2013-08-16 00:40:00,
2013-08-15 20:50:00,65.5,57.4,29.99,South,171,0.0,2.0,75,0.00,,,0.00,VWS V14.01,2013-08-16 00:50:00,
2013-08-15 21:00:00,65.3,57.5,29.99,South,171,0.0,1.0,76,0.00,,,0.00,VWS V14.01,2013-08-16 01:00:00,
2013-08-15 21:10:00,65.2,57.5,29.99,South,171,0.0,1.0,76,0.00,,,0.00,VWS V14.01,2013-08-16 01:10:00,
2013-08-15 21:20:00,65.2,57.8,29.99,South,171,0.0,1.0,77,0.00,,,0.00,VWS V14.01,2013-08-16 01:20:00,
2013-08-15 21:40:00,65.5,58.5,29.99,South,171,0.0,0.0,78,0.00,,,0.00,VWS V14.01,2013-08-16 01:40:00,
2013-08-15 21:50:00,65.2,58.2,29.99,South,171,0.0,0.0,78,0.00,,,0.00,VWS V14.01,2013-08-16 01:50:00,
2013-08-15 22:00:00,64.9,58.2,29.99,South,171,0.0,1.0,79,0.00,,,0.00,VWS V14.01,2013-08-16 02:00:00,
2013-08-15 22:10:00,64.6,58.3,29.99,South,171,0.0,1.0,80,0.00,,,0.00,VWS V14.01,2013-08-16 02:10:00,
2013-08-15 22:20:00,64.4,58.1,29.99,South,171,0.0,0.0,80,0.00,,,0.00,VWS V14.01,2013-08-16 02:20:00,
2013-08-15 22:30:00,64.3,58.3,29.99,South,171,0.0,0.0,81,0.00,,,0.00,VWS V14.01,2013-08-16 02:30:00,
2013-08-15 22:40:00,63.9,58.0,29.99,South,171,0.0,1.0,81,0.00,,,0.00,VWS V14.01,2013-08-16 02:40:00,
2013-08-15 22:50:00,63.7,58.1,29.99,South,171,0.0,0.0,82,0.00,,,0.00,VWS V14.01,2013-08-16 02:50:00,
2013-08-15 23:00:00,63.3,58.1,30.00,South,171,0.0,1.0,83,0.00,,,0.00,VWS V14.01,2013-08-16 03:00:00,
2013-08-15 23:10:00,63.0,58.1,30.00,South,171,0.0,0.0,84,0.00,,,0.00,VWS V14.01,2013-08-16 03:10:00,
2013-08-15 23:20:00,62.8,57.9,30.00,South,171,0.0,0.0,84,0.00,,,0.00,VWS V14.01,2013-08-16 03:20:00,
2013-08-15 23:30:00,62.5,57.6,30.01,South,171,0.0,1.0,84,0.00,,,0.00,VWS V14.01,2013-08-16 03:30:00,
2013-08-15 23:40:00,62.3,57.7,30.01,South,171,0.0,0.0,85,0.00,,,0.00,VWS V14.01,2013-08-16 03:40:00,
2013-08-15 23:50:00,62.2,58.0,30.00,South,171,0.0,1.0,86,0.00,,,0.00,VWS V14.01,2013-08-16 03:50:00,